createdAt,value
2022-10-08T00:00:17.174Z,1012.39
2022-10-08T00:01:17.161Z,1012.38
2022-10-08T00:02:17.225Z,1012.40
2022-10-08T00:03:17.112Z,1012.33
2022-10-08T00:04:17.199Z,1012.32
2022-10-08T00:05:17.106Z,1012.46
2022-10-08T00:06:17.113Z,1012.40
2022-10-08T00:07:17.075Z,1012.34
2022-10-08T00:08:17.070Z,1012.38
2022-10-08T00:09:17.049Z,1012.42
2022-10-08T00:10:17.051Z,1012.40
2022-10-08T00:11:17.043Z,1012.37
2022-10-08T00:12:17.067Z,1012.31
2022-10-08T00:13:17.021Z,1012.40
2022-10-08T00:14:17.005Z,1012.41
2022-10-08T00:15:16.995Z,1012.43
2022-10-08T00:16:17.049Z,1012.38
2022-10-08T00:17:16.971Z,1012.41
2022-10-08T00:18:16.996Z,1012.43
2022-10-08T00:19:16.958Z,1012.36
2022-10-08T00:20:16.939Z,1012.32
2022-10-08T00:21:16.925Z,1012.34
2022-10-08T00:22:16.931Z,1012.33
2022-10-08T00:23:16.903Z,1012.32
2022-10-08T00:24:16.918Z,1012.26
2022-10-08T00:25:16.884Z,1012.39
2022-10-08T00:26:16.873Z,1012.36
2022-10-08T00:27:16.877Z,1012.33
2022-10-08T00:28:16.938Z,1012.37
2022-10-08T00:29:16.856Z,1012.42
2022-10-08T00:30:16.852Z,1012.43
2022-10-08T00:31:16.886Z,1012.44
2022-10-08T00:32:16.815Z,1012.38
2022-10-08T00:33:16.821Z,1012.41
2022-10-08T00:34:16.818Z,1012.33
2022-10-08T00:35:16.787Z,1012.38
2022-10-08T00:36:16.777Z,1012.33
2022-10-08T00:37:16.761Z,1012.35
2022-10-08T00:38:16.747Z,1012.30
2022-10-08T00:39:16.754Z,1012.35
2022-10-08T00:40:16.735Z,1012.34
2022-10-08T00:41:16.716Z,1012.29
2022-10-08T00:42:16.720Z,1012.31
2022-10-08T00:43:16.728Z,1012.32
2022-10-08T00:44:16.680Z,1012.26
2022-10-08T00:45:16.680Z,1012.29
2022-10-08T00:46:16.699Z,1012.23
2022-10-08T00:47:16.649Z,1012.19
2022-10-08T00:48:16.636Z,1012.18
2022-10-08T00:49:16.637Z,1012.16
2022-10-08T00:50:16.679Z,1012.21
2022-10-08T00:51:16.617Z,1012.15
2022-10-08T00:52:16.616Z,1012.20
2022-10-08T00:53:16.589Z,1012.22
2022-10-08T00:54:16.585Z,1012.13
2022-10-08T00:55:16.565Z,1012.15
2022-10-08T00:56:16.578Z,1012.13
2022-10-08T00:57:16.555Z,1012.16
2022-10-08T00:58:16.544Z,1012.17
2022-10-08T00:59:16.530Z,1012.11
2022-10-08T01:00:16.531Z,1012.11
2022-10-08T01:01:16.634Z,1012.13
2022-10-08T01:02:16.599Z,1012.10
2022-10-08T01:03:16.494Z,1012.14
2022-10-08T01:04:16.476Z,1012.09
2022-10-08T01:05:16.460Z,1012.15
2022-10-08T01:06:16.474Z,1012.06
2022-10-08T01:07:16.464Z,1012.12
2022-10-08T01:08:16.445Z,1012.06
2022-10-08T01:09:19.054Z,1012.10
2022-10-08T01:10:16.420Z,1012.09
2022-10-08T01:11:16.398Z,1012.05
2022-10-08T01:12:16.396Z,1012.02
2022-10-08T01:13:16.380Z,1012.04
2022-10-08T01:14:25.442Z,1012.02
2022-10-08T01:15:16.449Z,1012.00
2022-10-08T01:16:16.467Z,1012.07
2022-10-08T01:17:16.458Z,1012.07
2022-10-08T01:18:16.349Z,1012.05
2022-10-08T01:19:16.320Z,1012.06
2022-10-08T01:20:16.314Z,1012.02
2022-10-08T01:21:16.311Z,1012.05
2022-10-08T01:22:16.300Z,1011.98
2022-10-08T01:23:16.273Z,1012.01
2022-10-08T01:24:16.282Z,1011.97
2022-10-08T01:25:16.264Z,1011.96
2022-10-08T01:26:16.242Z,1011.97
2022-10-08T01:27:16.237Z,1011.99
2022-10-08T01:28:16.293Z,1011.97
2022-10-08T01:29:16.254Z,1011.91
2022-10-08T01:30:16.239Z,1011.97
2022-10-08T01:31:16.279Z,1011.94
2022-10-08T01:32:16.206Z,1012.01
2022-10-08T01:33:16.172Z,1011.91
2022-10-08T01:34:16.170Z,1011.94
2022-10-08T01:35:26.044Z,1011.92
2022-10-08T01:36:16.257Z,1011.90
2022-10-08T01:37:16.181Z,1011.85
2022-10-08T01:38:24.798Z,1011.92
2022-10-08T01:39:16.250Z,1011.94
2022-10-08T01:40:16.213Z,1011.96
2022-10-08T01:41:16.126Z,1011.92
2022-10-08T01:42:16.174Z,1011.95
2022-10-08T01:43:16.121Z,1011.94
2022-10-08T01:44:16.065Z,1011.92
2022-10-08T01:45:16.058Z,1011.87
2022-10-08T01:46:16.100Z,1011.83
2022-10-08T01:47:16.040Z,1011.74
2022-10-08T01:48:16.033Z,1011.73
2022-10-08T01:49:16.024Z,1011.71
2022-10-08T01:50:16.010Z,1011.78
2022-10-08T01:51:15.997Z,1011.82
2022-10-08T01:52:15.972Z,1011.77
2022-10-08T01:53:15.973Z,1011.79
2022-10-08T01:54:15.967Z,1011.83
2022-10-08T01:55:15.939Z,1011.72
2022-10-08T01:56:15.944Z,1011.79
2022-10-08T01:57:15.932Z,1011.74
2022-10-08T01:58:15.914Z,1011.72
2022-10-08T01:59:15.909Z,1011.73
2022-10-08T02:00:15.896Z,1011.71
2022-10-08T02:01:16.013Z,1011.70
2022-10-08T02:02:15.950Z,1011.67
2022-10-08T02:03:15.862Z,1011.67
2022-10-08T02:04:15.840Z,1011.62
2022-10-08T02:05:15.835Z,1011.62
2022-10-08T02:06:15.867Z,1011.62
2022-10-08T02:07:15.830Z,1011.60
2022-10-08T02:08:15.809Z,1011.59
2022-10-08T02:09:15.794Z,1011.58
2022-10-08T02:10:15.801Z,1011.67
2022-10-08T02:11:15.804Z,1011.59
2022-10-08T02:12:15.786Z,1011.66
2022-10-08T02:13:15.765Z,1011.55
2022-10-08T02:14:15.740Z,1011.60
2022-10-08T02:15:15.758Z,1011.52
2022-10-08T02:16:15.743Z,1011.64
2022-10-08T02:17:15.713Z,1011.58
2022-10-08T02:18:15.718Z,1011.55
2022-10-08T02:19:15.680Z,1011.55
2022-10-08T02:20:15.674Z,1011.49
2022-10-08T02:21:15.672Z,1011.54
2022-10-08T02:22:15.707Z,1011.52
2022-10-08T02:23:15.644Z,1011.56
2022-10-08T02:24:15.629Z,1011.55
2022-10-08T02:25:15.678Z,1011.53
2022-10-08T02:26:15.631Z,1011.46
2022-10-08T02:27:15.597Z,1011.52
2022-10-08T02:28:15.667Z,1011.54
2022-10-08T02:29:15.624Z,1011.50
2022-10-08T02:30:15.576Z,1011.52
2022-10-08T02:31:15.626Z,1011.50
2022-10-08T02:32:15.551Z,1011.49
2022-10-08T02:33:15.535Z,1011.57
2022-10-08T02:34:15.557Z,1011.55
2022-10-08T02:35:15.520Z,1011.56
2022-10-08T02:36:15.513Z,1011.57
2022-10-08T02:37:15.499Z,1011.60
2022-10-08T02:38:15.491Z,1011.61
2022-10-08T02:39:15.485Z,1011.60
2022-10-08T02:40:15.493Z,1011.52
2022-10-08T02:41:15.469Z,1011.58
2022-10-08T02:42:15.462Z,1011.52
2022-10-08T02:43:15.448Z,1011.50
2022-10-08T02:44:15.424Z,1011.57
2022-10-08T02:45:15.443Z,1011.54
2022-10-08T02:46:15.417Z,1011.52
2022-10-08T02:47:15.407Z,1011.53
2022-10-08T02:48:15.376Z,1011.50
2022-10-08T02:49:15.372Z,1011.54
2022-10-08T02:50:15.365Z,1011.59
2022-10-08T02:51:15.360Z,1011.59
2022-10-08T02:52:15.339Z,1011.61
2022-10-08T02:53:15.366Z,1011.62
2022-10-08T02:54:15.323Z,1011.63
2022-10-08T02:55:26.030Z,1011.71
2022-10-08T02:56:15.390Z,1011.67
2022-10-08T02:57:15.387Z,1011.65
2022-10-08T02:58:15.344Z,1011.71
2022-10-08T02:59:15.409Z,1011.67
2022-10-08T03:00:15.281Z,1011.65
2022-10-08T03:01:15.348Z,1011.69
2022-10-08T03:02:15.281Z,1011.74
2022-10-08T03:03:15.221Z,1011.72
2022-10-08T03:04:15.233Z,1011.69
2022-10-08T03:05:15.213Z,1011.65
2022-10-08T03:06:15.192Z,1011.61
2022-10-08T03:07:15.219Z,1011.65
2022-10-08T03:08:15.189Z,1011.66
2022-10-08T03:09:15.170Z,1011.71
2022-10-08T03:10:15.167Z,1011.66
2022-10-08T03:11:15.152Z,1011.66
2022-10-08T03:12:15.139Z,1011.60
2022-10-08T03:13:15.118Z,1011.70
2022-10-08T03:14:15.132Z,1011.70
2022-10-08T03:15:15.111Z,1011.69
2022-10-08T03:16:15.150Z,1011.72
2022-10-08T03:17:15.074Z,1011.70
2022-10-08T03:18:15.060Z,1011.78
2022-10-08T03:19:15.099Z,1011.72
2022-10-08T03:20:15.044Z,1011.77
2022-10-08T03:21:15.075Z,1011.76
2022-10-08T03:22:15.013Z,1011.83
2022-10-08T03:23:15.036Z,1011.78
2022-10-08T03:24:15.023Z,1011.81
2022-10-08T03:25:14.985Z,1011.80
2022-10-08T03:26:14.974Z,1011.78
2022-10-08T03:27:14.992Z,1011.82
2022-10-08T03:28:15.020Z,1011.76
2022-10-08T03:29:14.948Z,1011.77
2022-10-08T03:30:14.961Z,1011.75
2022-10-08T03:31:14.990Z,1011.79
2022-10-08T03:32:14.937Z,1011.77
2022-10-08T03:33:14.901Z,1011.74
2022-10-08T03:34:14.900Z,1011.70
2022-10-08T03:35:14.890Z,1011.68
2022-10-08T03:36:14.879Z,1011.69
2022-10-08T03:37:14.869Z,1011.68
2022-10-08T03:38:14.905Z,1011.71
2022-10-08T03:39:14.851Z,1011.68
2022-10-08T03:40:14.848Z,1011.67
2022-10-08T03:41:14.850Z,1011.66
2022-10-08T03:42:14.821Z,1011.74
2022-10-08T03:43:14.821Z,1011.65
2022-10-08T03:44:14.791Z,1011.66
2022-10-08T03:45:23.446Z,1011.71
2022-10-08T03:46:14.921Z,1011.68
2022-10-08T03:47:25.584Z,1011.66
2022-10-08T03:49:25.186Z,1011.71
2022-10-08T03:50:25.195Z,1011.64
2022-10-08T03:51:25.170Z,1011.67
2022-10-08T03:52:25.189Z,1011.63
2022-10-08T03:53:25.084Z,1011.63
2022-10-08T03:54:25.028Z,1011.58
2022-10-08T03:55:25.035Z,1011.60
2022-10-08T03:56:25.015Z,1011.64
2022-10-08T03:57:25.016Z,1011.59
2022-10-08T03:58:24.976Z,1011.58
2022-10-08T03:59:24.979Z,1011.54
2022-10-08T04:00:24.956Z,1011.57
2022-10-08T04:01:25.112Z,1011.57
2022-10-08T04:02:25.000Z,1011.56
2022-10-08T04:03:24.936Z,1011.63
2022-10-08T04:04:25.879Z,1011.53
2022-10-08T04:05:24.950Z,1011.58
2022-10-08T04:06:24.888Z,1011.63
2022-10-08T04:07:24.906Z,1011.64
2022-10-08T04:08:24.880Z,1011.64
2022-10-08T04:09:24.875Z,1011.62
2022-10-08T04:10:24.879Z,1011.59
2022-10-08T04:11:24.865Z,1011.55
2022-10-08T04:12:24.842Z,1011.58
2022-10-08T04:13:24.866Z,1011.58
2022-10-08T04:14:24.827Z,1011.61
2022-10-08T04:15:24.796Z,1011.60
2022-10-08T04:16:24.792Z,1011.62
2022-10-08T04:17:24.811Z,1011.57
2022-10-08T04:18:24.791Z,1011.58
2022-10-08T04:19:24.790Z,1011.65
2022-10-08T04:20:24.740Z,1011.65
2022-10-08T04:21:24.754Z,1011.60
2022-10-08T04:22:24.774Z,1011.57
2022-10-08T04:23:24.725Z,1011.61
2022-10-08T04:24:24.708Z,1011.61
2022-10-08T04:25:24.703Z,1011.57
2022-10-08T04:26:24.684Z,1011.64
2022-10-08T04:27:24.666Z,1011.61
2022-10-08T04:28:24.768Z,1011.60
2022-10-08T04:29:24.653Z,1011.59
2022-10-08T04:30:24.643Z,1011.65
2022-10-08T04:31:24.695Z,1011.67
2022-10-08T04:32:24.625Z,1011.69
2022-10-08T04:33:24.632Z,1011.67
2022-10-08T04:34:24.624Z,1011.59
2022-10-08T04:35:32.339Z,1011.61
2022-10-08T04:36:24.677Z,1011.63
2022-10-08T04:37:24.644Z,1011.57
2022-10-08T04:38:24.626Z,1011.52
2022-10-08T04:39:24.664Z,1011.52
2022-10-08T04:40:24.607Z,1011.55
2022-10-08T04:41:24.524Z,1011.56
2022-10-08T04:42:24.518Z,1011.59
2022-10-08T04:43:24.511Z,1011.58
2022-10-08T04:44:24.506Z,1011.60
2022-10-08T04:45:24.504Z,1011.63
2022-10-08T04:46:24.527Z,1011.57
2022-10-08T04:47:24.468Z,1011.61
2022-10-08T04:48:24.449Z,1011.56
2022-10-08T04:49:24.456Z,1011.51
2022-10-08T04:50:24.456Z,1011.54
2022-10-08T04:51:24.459Z,1011.55
2022-10-08T04:52:24.422Z,1011.54
2022-10-08T04:53:24.395Z,1011.53
2022-10-08T04:54:24.383Z,1011.58
2022-10-08T04:55:24.374Z,1011.56
2022-10-08T04:56:24.398Z,1011.64
2022-10-08T04:57:24.378Z,1011.55
2022-10-08T04:58:24.340Z,1011.61
2022-10-08T04:59:24.333Z,1011.59
2022-10-08T05:00:24.333Z,1011.58
2022-10-08T05:01:24.370Z,1011.59
2022-10-08T05:02:24.367Z,1011.58
2022-10-08T05:03:24.313Z,1011.59
2022-10-08T05:04:24.276Z,1011.60
2022-10-08T05:05:24.295Z,1011.55
2022-10-08T05:06:24.273Z,1011.60
2022-10-08T05:07:24.255Z,1011.60
2022-10-08T05:08:24.258Z,1011.59
2022-10-08T05:09:24.227Z,1011.61
2022-10-08T05:10:24.244Z,1011.53
2022-10-08T05:11:24.214Z,1011.61
2022-10-08T05:12:24.190Z,1011.57
2022-10-08T05:13:24.191Z,1011.59
2022-10-08T05:14:24.196Z,1011.55
2022-10-08T05:15:24.171Z,1011.57
2022-10-08T05:16:24.205Z,1011.56
2022-10-08T05:17:24.172Z,1011.57
2022-10-08T05:18:24.145Z,1011.62
2022-10-08T05:19:24.150Z,1011.61
2022-10-08T05:20:24.107Z,1011.63
2022-10-08T05:21:24.114Z,1011.63
2022-10-08T05:22:24.089Z,1011.63
2022-10-08T05:23:24.088Z,1011.62
2022-10-08T05:24:24.106Z,1011.61
2022-10-08T05:25:24.069Z,1011.66
2022-10-08T05:26:41.549Z,1011.62
2022-10-08T05:27:25.030Z,1011.63
2022-10-08T05:28:24.105Z,1011.66
2022-10-08T05:29:24.040Z,1011.68
2022-10-08T05:30:24.015Z,1011.65
2022-10-08T05:31:24.032Z,1011.63
2022-10-08T05:32:23.986Z,1011.62
2022-10-08T05:33:23.973Z,1011.64
2022-10-08T05:34:23.961Z,1011.62
2022-10-08T05:35:23.959Z,1011.70
2022-10-08T05:36:23.964Z,1011.71
2022-10-08T05:37:23.942Z,1011.70
2022-10-08T05:38:23.918Z,1011.69
2022-10-08T05:39:23.907Z,1011.69
2022-10-08T05:40:23.933Z,1011.66
2022-10-08T05:41:23.888Z,1011.66
2022-10-08T05:42:23.931Z,1011.64
2022-10-08T05:43:23.861Z,1011.66
2022-10-08T05:44:23.858Z,1011.62
2022-10-08T05:45:23.848Z,1011.64
2022-10-08T05:46:23.917Z,1011.64
2022-10-08T05:47:23.834Z,1011.68
2022-10-08T05:48:23.824Z,1011.71
2022-10-08T05:49:23.808Z,1011.67
2022-10-08T05:50:23.795Z,1011.73
2022-10-08T05:51:23.785Z,1011.68
2022-10-08T05:52:23.777Z,1011.69
2022-10-08T05:53:23.771Z,1011.72
2022-10-08T05:54:23.746Z,1011.71
2022-10-08T05:55:23.754Z,1011.71
2022-10-08T05:56:23.746Z,1011.69
2022-10-08T05:57:23.719Z,1011.73
2022-10-08T05:58:26.308Z,1011.74
2022-10-08T05:59:24.718Z,1011.77
2022-10-08T06:00:23.688Z,1011.80
2022-10-08T06:01:23.681Z,1011.80
2022-10-08T06:02:23.685Z,1011.77
2022-10-08T06:03:23.685Z,1011.79
2022-10-08T06:04:23.747Z,1011.83
2022-10-08T06:05:23.636Z,1011.77
2022-10-08T06:06:23.653Z,1011.80
2022-10-08T06:07:23.623Z,1011.71
2022-10-08T06:08:23.605Z,1011.75
2022-10-08T06:09:23.621Z,1011.70
2022-10-08T06:10:23.592Z,1011.75
2022-10-08T06:11:23.582Z,1011.70
2022-10-08T06:12:23.561Z,1011.69
2022-10-08T06:13:23.632Z,1011.71
2022-10-08T06:14:23.583Z,1011.80
2022-10-08T06:15:33.000Z,1011.72
2022-10-08T06:16:23.695Z,1011.76
2022-10-08T06:17:23.714Z,1011.77
2022-10-08T06:18:23.612Z,1011.70
2022-10-08T06:19:23.638Z,1011.76
2022-10-08T06:20:23.556Z,1011.74
2022-10-08T06:21:23.564Z,1011.80
2022-10-08T06:22:23.463Z,1011.78
2022-10-08T06:23:23.461Z,1011.77
2022-10-08T06:24:23.484Z,1011.79
2022-10-08T06:25:23.525Z,1011.82
2022-10-08T06:26:23.434Z,1011.87
2022-10-08T06:27:23.466Z,1011.83
2022-10-08T06:28:23.500Z,1011.91
2022-10-08T06:29:23.408Z,1011.86
2022-10-08T06:30:23.447Z,1011.86
2022-10-08T06:31:23.560Z,1011.91
2022-10-08T06:32:23.368Z,1011.92
2022-10-08T06:33:23.385Z,1011.83
2022-10-08T06:34:23.417Z,1011.93
2022-10-08T06:35:23.558Z,1011.91
2022-10-08T06:36:23.466Z,1011.94
2022-10-08T06:37:23.357Z,1011.95
2022-10-08T06:38:23.569Z,1011.90
2022-10-08T06:39:23.569Z,1011.98
2022-10-08T06:40:23.300Z,1011.93
2022-10-08T06:41:23.542Z,1011.90
2022-10-08T06:42:23.258Z,1011.85
2022-10-08T06:43:23.240Z,1011.95
2022-10-08T06:44:23.316Z,1011.87
2022-10-08T06:45:23.292Z,1011.90
2022-10-08T06:46:23.433Z,1011.88
2022-10-08T06:47:23.247Z,1011.91
2022-10-08T06:48:23.279Z,1011.91
2022-10-08T06:49:23.189Z,1011.97
2022-10-08T06:50:23.189Z,1011.95
2022-10-08T06:51:23.162Z,1011.96
2022-10-08T06:52:23.232Z,1011.97
2022-10-08T06:53:23.165Z,1011.95
2022-10-08T06:54:23.139Z,1011.96
2022-10-08T06:55:23.102Z,1011.93
2022-10-08T06:56:23.178Z,1011.90
2022-10-08T06:57:23.272Z,1011.98
2022-10-08T06:58:23.153Z,1012.04
2022-10-08T06:59:23.283Z,1011.96
2022-10-08T07:00:23.295Z,1012.00
2022-10-08T07:01:23.161Z,1011.99
2022-10-08T07:02:23.225Z,1012.02
2022-10-08T07:03:23.105Z,1012.10
2022-10-08T07:04:23.048Z,1012.11
2022-10-08T07:05:23.020Z,1012.12
2022-10-08T07:06:23.033Z,1012.18
2022-10-08T07:07:23.147Z,1012.23
2022-10-08T07:08:23.068Z,1012.17
2022-10-08T07:09:23.003Z,1012.21
2022-10-08T07:10:22.989Z,1012.26
2022-10-08T07:11:22.942Z,1012.28
2022-10-08T07:12:22.968Z,1012.29
2022-10-08T07:13:22.929Z,1012.22
2022-10-08T07:14:22.931Z,1012.21
2022-10-08T07:15:22.944Z,1012.21
2022-10-08T07:16:22.958Z,1012.27
2022-10-08T07:17:22.916Z,1012.28
2022-10-08T07:18:22.874Z,1012.30
2022-10-08T07:19:22.876Z,1012.29
2022-10-08T07:20:22.993Z,1012.32
2022-10-08T07:21:22.951Z,1012.34
2022-10-08T07:22:22.853Z,1012.39
2022-10-08T07:23:22.875Z,1012.35
2022-10-08T07:24:22.829Z,1012.42
2022-10-08T07:25:22.793Z,1012.30
2022-10-08T07:26:22.802Z,1012.38
2022-10-08T07:27:22.779Z,1012.35
2022-10-08T07:28:22.836Z,1012.38
2022-10-08T07:29:22.755Z,1012.39
2022-10-08T07:30:22.750Z,1012.32
2022-10-08T07:31:22.906Z,1012.38
2022-10-08T07:32:22.729Z,1012.36
2022-10-08T07:33:22.751Z,1012.33
2022-10-08T07:34:23.030Z,1012.31
2022-10-08T07:35:22.753Z,1012.34
2022-10-08T07:36:22.711Z,1012.39
2022-10-08T07:37:22.702Z,1012.35
2022-10-08T07:38:22.765Z,1012.35
2022-10-08T07:39:22.652Z,1012.36
2022-10-08T07:40:22.633Z,1012.35
2022-10-08T07:41:22.683Z,1012.41
2022-10-08T07:42:22.676Z,1012.39
2022-10-08T07:43:22.618Z,1012.38
2022-10-08T07:44:22.594Z,1012.42
2022-10-08T07:45:22.834Z,1012.41
2022-10-08T07:46:22.608Z,1012.41
2022-10-08T07:47:22.556Z,1012.41
2022-10-08T07:48:22.565Z,1012.42
2022-10-08T07:49:22.540Z,1012.43
2022-10-08T07:50:22.527Z,1012.40
2022-10-08T07:51:22.526Z,1012.48
2022-10-08T07:52:22.569Z,1012.52
2022-10-08T07:53:22.510Z,1012.50
2022-10-08T07:54:22.510Z,1012.53
2022-10-08T07:55:31.347Z,1012.47
2022-10-08T07:56:22.658Z,1012.56
2022-10-08T07:57:22.497Z,1012.52
2022-10-08T07:58:22.522Z,1012.43
2022-10-08T07:59:22.461Z,1012.52
2022-10-08T08:00:26.053Z,1012.50
2022-10-08T08:01:22.591Z,1012.57
2022-10-08T08:02:22.554Z,1012.44
2022-10-08T08:03:22.412Z,1012.49
2022-10-08T08:04:22.477Z,1012.51
2022-10-08T08:05:31.039Z,1012.56
2022-10-08T08:06:22.598Z,1012.55
2022-10-08T08:07:22.476Z,1012.56
2022-10-08T08:08:33.570Z,1012.57
2022-10-08T08:09:22.417Z,1012.64
2022-10-08T08:10:22.414Z,1012.65
2022-10-08T08:11:22.368Z,1012.62
2022-10-08T08:12:22.400Z,1012.60
2022-10-08T08:13:22.354Z,1012.62
2022-10-08T08:14:22.298Z,1012.58
2022-10-08T08:15:22.273Z,1012.62
2022-10-08T08:16:22.342Z,1012.66
2022-10-08T08:17:22.263Z,1012.58
2022-10-08T08:18:22.247Z,1012.70
2022-10-08T08:19:22.228Z,1012.63
2022-10-08T08:20:22.241Z,1012.61
2022-10-08T08:21:22.244Z,1012.54
2022-10-08T08:22:22.187Z,1012.56
2022-10-08T08:23:22.182Z,1012.65
2022-10-08T08:24:22.196Z,1012.56
2022-10-08T08:25:22.246Z,1012.60
2022-10-08T08:26:22.213Z,1012.55
2022-10-08T08:27:22.172Z,1012.56
2022-10-08T08:28:22.241Z,1012.59
2022-10-08T08:29:22.126Z,1012.56
2022-10-08T08:30:22.151Z,1012.60
2022-10-08T08:31:22.169Z,1012.66
2022-10-08T08:32:27.570Z,1012.67
2022-10-08T08:33:23.089Z,1012.62
2022-10-08T08:34:22.078Z,1012.56
2022-10-08T08:35:22.069Z,1012.63
2022-10-08T08:36:22.050Z,1012.69
2022-10-08T08:37:22.076Z,1012.66
2022-10-08T08:38:22.014Z,1012.70
2022-10-08T08:39:22.012Z,1012.74
2022-10-08T08:40:21.995Z,1012.70
2022-10-08T08:41:22.111Z,1012.76
2022-10-08T08:42:21.971Z,1012.69
2022-10-08T08:43:21.965Z,1012.74
2022-10-08T08:44:21.988Z,1012.72
2022-10-08T08:45:44.711Z,1012.72
2022-10-08T08:46:23.014Z,1012.76
2022-10-08T08:47:21.928Z,1012.77
2022-10-08T08:48:21.926Z,1012.78
2022-10-08T08:49:21.917Z,1012.80
2022-10-08T08:50:21.898Z,1012.82
2022-10-08T08:51:21.896Z,1012.84
2022-10-08T08:52:21.887Z,1012.80
2022-10-08T08:53:21.922Z,1012.89
2022-10-08T08:54:21.845Z,1012.88
2022-10-08T08:55:22.030Z,1012.91
2022-10-08T08:56:21.821Z,1012.97
2022-10-08T08:57:21.827Z,1012.98
2022-10-08T08:58:21.841Z,1012.98
2022-10-08T08:59:21.794Z,1012.97
2022-10-08T09:00:21.789Z,1012.85
2022-10-08T09:01:21.852Z,1012.86
2022-10-08T09:02:21.777Z,1012.86
2022-10-08T09:03:21.837Z,1012.86
2022-10-08T09:04:21.743Z,1012.89
2022-10-08T09:05:21.839Z,1012.94
2022-10-08T09:06:21.728Z,1012.95
2022-10-08T09:07:21.714Z,1012.92
2022-10-08T09:08:21.729Z,1013.01
2022-10-08T09:09:21.715Z,1013.00
2022-10-08T09:10:21.729Z,1012.95
2022-10-08T09:11:21.718Z,1012.95
2022-10-08T09:12:21.697Z,1012.88
2022-10-08T09:13:21.669Z,1012.87
2022-10-08T09:14:21.637Z,1012.84
2022-10-08T09:15:21.650Z,1012.90
2022-10-08T09:16:21.710Z,1012.87
2022-10-08T09:17:21.625Z,1012.92
2022-10-08T09:18:21.600Z,1012.95
2022-10-08T09:19:21.612Z,1012.84
2022-10-08T09:20:21.609Z,1012.95
2022-10-08T09:21:21.585Z,1012.95
2022-10-08T09:22:21.571Z,1012.97
2022-10-08T09:23:21.549Z,1012.96
2022-10-08T09:24:21.527Z,1012.89
2022-10-08T09:25:21.639Z,1012.93
2022-10-08T09:26:21.527Z,1012.97
2022-10-08T09:27:21.500Z,1012.98
2022-10-08T09:28:21.525Z,1012.96
2022-10-08T09:29:21.483Z,1013.05
2022-10-08T09:30:21.507Z,1013.01
2022-10-08T09:31:21.496Z,1012.97
2022-10-08T09:32:21.455Z,1012.98
2022-10-08T09:33:21.450Z,1013.04
2022-10-08T09:34:21.425Z,1013.06
2022-10-08T09:35:21.443Z,1013.09
2022-10-08T09:36:31.415Z,1013.14
2022-10-08T09:37:21.626Z,1013.17
2022-10-08T09:38:21.481Z,1013.12
2022-10-08T09:39:21.511Z,1013.10
2022-10-08T09:40:21.607Z,1013.14
2022-10-08T09:41:21.364Z,1013.14
2022-10-08T09:42:21.374Z,1013.15
2022-10-08T09:43:21.335Z,1013.09
2022-10-08T09:44:21.323Z,1013.21
2022-10-08T09:45:22.310Z,1013.09
2022-10-08T09:46:21.318Z,1013.16
2022-10-08T09:47:21.314Z,1013.13
2022-10-08T09:48:21.301Z,1013.15
2022-10-08T09:49:21.276Z,1013.08
2022-10-08T09:50:21.256Z,1013.12
2022-10-08T09:51:21.298Z,1013.06
2022-10-08T09:52:21.288Z,1013.09
2022-10-08T09:53:21.235Z,1013.20
2022-10-08T09:54:21.228Z,1013.22
2022-10-08T09:55:21.280Z,1013.22
2022-10-08T09:56:21.210Z,1013.25
2022-10-08T09:57:21.223Z,1013.22
2022-10-08T09:58:21.202Z,1013.25
2022-10-08T09:59:21.164Z,1013.30
2022-10-08T10:00:21.157Z,1013.26
2022-10-08T10:01:21.212Z,1013.20
2022-10-08T10:02:21.140Z,1013.28
2022-10-08T10:03:21.172Z,1013.34
2022-10-08T10:04:21.118Z,1013.27
2022-10-08T10:05:21.105Z,1013.35
2022-10-08T10:06:21.306Z,1013.32
2022-10-08T10:07:21.078Z,1013.35
2022-10-08T10:08:21.100Z,1013.28
2022-10-08T10:09:21.174Z,1013.29
2022-10-08T10:10:21.133Z,1013.35
2022-10-08T10:11:21.050Z,1013.36
2022-10-08T10:12:21.045Z,1013.32
2022-10-08T10:13:21.010Z,1013.34
2022-10-08T10:14:21.022Z,1013.37
2022-10-08T10:15:31.023Z,1013.40
2022-10-08T10:16:21.091Z,1013.37
2022-10-08T10:17:21.066Z,1013.34
2022-10-08T10:18:29.402Z,1013.38
2022-10-08T10:19:21.054Z,1013.35
2022-10-08T10:20:21.144Z,1013.39
2022-10-08T10:21:21.002Z,1013.38
2022-10-08T10:22:21.114Z,1013.43
2022-10-08T10:23:20.975Z,1013.40
2022-10-08T10:24:20.927Z,1013.39
2022-10-08T10:25:20.885Z,1013.48
2022-10-08T10:26:20.880Z,1013.43
2022-10-08T10:27:20.953Z,1013.48
2022-10-08T10:28:20.945Z,1013.37
2022-10-08T10:29:20.857Z,1013.37
2022-10-08T10:30:20.836Z,1013.38
2022-10-08T10:31:20.929Z,1013.38
2022-10-08T10:32:21.290Z,1013.35
2022-10-08T10:33:20.809Z,1013.43
2022-10-08T10:34:20.820Z,1013.43
2022-10-08T10:35:20.837Z,1013.41
2022-10-08T10:36:20.781Z,1013.41
2022-10-08T10:37:20.769Z,1013.41
2022-10-08T10:38:20.752Z,1013.45
2022-10-08T10:39:20.737Z,1013.41
2022-10-08T10:40:20.824Z,1013.36
2022-10-08T10:41:20.731Z,1013.40
2022-10-08T10:42:20.707Z,1013.44
2022-10-08T10:43:20.700Z,1013.41
2022-10-08T10:44:20.713Z,1013.46
2022-10-08T10:45:20.756Z,1013.47
2022-10-08T10:46:20.746Z,1013.43
2022-10-08T10:47:20.661Z,1013.41
2022-10-08T10:48:20.677Z,1013.51
2022-10-08T10:49:20.642Z,1013.51
2022-10-08T10:50:20.647Z,1013.46
2022-10-08T10:51:20.685Z,1013.44
2022-10-08T10:52:20.600Z,1013.46
2022-10-08T10:53:20.615Z,1013.49
2022-10-08T10:54:20.602Z,1013.47
2022-10-08T10:55:20.594Z,1013.50
2022-10-08T10:56:20.597Z,1013.54
2022-10-08T10:57:20.570Z,1013.51
2022-10-08T10:58:20.533Z,1013.50
2022-10-08T10:59:20.528Z,1013.53
2022-10-08T11:00:20.558Z,1013.54
2022-10-08T11:01:20.616Z,1013.56
2022-10-08T11:02:20.532Z,1013.54
2022-10-08T11:03:20.525Z,1013.61
2022-10-08T11:04:20.499Z,1013.60
2022-10-08T11:05:20.461Z,1013.61
2022-10-08T11:06:20.488Z,1013.60
2022-10-08T11:07:20.452Z,1013.55
2022-10-08T11:08:20.434Z,1013.58
2022-10-08T11:09:20.470Z,1013.57
2022-10-08T11:10:20.411Z,1013.57
2022-10-08T11:11:20.405Z,1013.62
2022-10-08T11:12:20.513Z,1013.63
2022-10-08T11:13:20.390Z,1013.64
2022-10-08T11:14:20.380Z,1013.70
2022-10-08T11:15:20.364Z,1013.62
2022-10-08T11:16:29.030Z,1013.71
2022-10-08T11:17:29.542Z,1013.66
2022-10-08T11:18:20.434Z,1013.71
2022-10-08T11:19:20.385Z,1013.70
2022-10-08T11:20:20.373Z,1013.64
2022-10-08T11:21:20.399Z,1013.69
2022-10-08T11:22:20.302Z,1013.64
2022-10-08T11:23:20.317Z,1013.71
2022-10-08T11:24:20.374Z,1013.70
2022-10-08T11:25:20.263Z,1013.73
2022-10-08T11:26:23.185Z,1013.69
2022-10-08T11:27:20.240Z,1013.70
2022-10-08T11:28:20.359Z,1013.62
2022-10-08T11:29:20.216Z,1013.63
2022-10-08T11:30:20.210Z,1013.64
2022-10-08T11:31:20.350Z,1013.65
2022-10-08T11:32:20.195Z,1013.72
2022-10-08T11:33:20.169Z,1013.67
2022-10-08T11:34:20.191Z,1013.67
2022-10-08T11:35:20.232Z,1013.67
2022-10-08T11:36:20.140Z,1013.60
2022-10-08T11:37:20.152Z,1013.60
2022-10-08T11:38:20.134Z,1013.61
2022-10-08T11:39:20.141Z,1013.58
2022-10-08T11:40:20.113Z,1013.62
2022-10-08T11:41:20.119Z,1013.56
2022-10-08T11:42:20.087Z,1013.59
2022-10-08T11:43:20.089Z,1013.59
2022-10-08T11:44:20.081Z,1013.62
2022-10-08T11:45:20.047Z,1013.61
2022-10-08T11:46:20.127Z,1013.54
2022-10-08T11:47:20.035Z,1013.55
2022-10-08T11:48:20.018Z,1013.49
2022-10-08T11:49:20.060Z,1013.58
2022-10-08T11:50:20.003Z,1013.56
2022-10-08T11:51:20.009Z,1013.53
2022-10-08T11:52:19.969Z,1013.55
2022-10-08T11:53:19.978Z,1013.53
2022-10-08T11:54:19.947Z,1013.53
2022-10-08T11:55:19.969Z,1013.54
2022-10-08T11:56:20.053Z,1013.49
2022-10-08T11:57:19.917Z,1013.48
2022-10-08T11:58:19.905Z,1013.48
2022-10-08T11:59:19.931Z,1013.61
2022-10-08T12:00:19.924Z,1013.51
2022-10-08T12:01:19.903Z,1013.45
2022-10-08T12:02:19.956Z,1013.50
2022-10-08T12:03:20.005Z,1013.52
2022-10-08T12:04:19.844Z,1013.46
2022-10-08T12:05:19.856Z,1013.50
2022-10-08T12:06:19.829Z,1013.51